Time;durP1;ratioP1;P1;durP2;ratioP2;P2;SDS_P1;SDS_P2;PMS_P1;PMS_P2;Temp;Humidity;BMP_temperature;BMP_pressure;BME280_temperature;BME280_humidity;BME280_pressure;Samples;Min_cycle;Max_cycle;Signal;HPM_P1;HPM_P2
2022/08/05 00:02:41;;;;;;;6.78;3.58;;;;;;;;;;10450165;28;20094;-75
2022/08/05 00:07:41;;;;;;;8.20;4.30;;;;;;;;;;10472328;28;20039;-75
2022/08/05 00:12:41;;;;;;;6.22;3.70;;;;;;;;;;10491218;28;20032;-74
2022/08/05 00:17:42;;;;;;;8.77;4.22;;;;;;;;;;10472194;28;20112;-75
2022/08/05 00:22:42;;;;;;;8.63;3.92;;;;;;;;;;10450043;28;20035;-75
2022/08/05 00:27:42;;;;;;;10.93;4.30;;;;;;;;;;10478152;28;20111;-75
2022/08/05 00:32:42;;;;;;;7.68;4.15;;;;;;;;;;10492844;28;20021;-75
2022/08/05 00:37:43;;;;;;;6.47;4.03;;;;;;;;;;10499185;28;20021;-75
2022/08/05 00:42:43;;;;;;;6.03;4.88;;;;;;;;;;10498933;28;20021;-74
2022/08/05 00:47:43;;;;;;;12.67;4.70;;;;;;;;;;10478123;28;20040;-76
2022/08/05 00:52:43;;;;;;;6.63;4.30;;;;;;;;;;10457567;28;20025;-76
2022/08/05 00:57:44;;;;;;;5.03;4.10;;;;;;;;;;10456937;28;20021;-75
2022/08/05 01:02:44;;;;;;;7.45;3.75;;;;;;;;;;10457162;28;20143;-75
2022/08/05 01:07:44;;;;;;;4.90;3.72;;;;;;;;;;10456245;28;20041;-75
2022/08/05 01:12:47;;;;;;;6.07;3.97;;;;;;;;;;10456284;28;20048;-74
2022/08/05 01:17:54;;;;;;;4.72;3.75;;;;;;;;;;10457215;28;20040;-74
2022/08/05 01:23:06;;;;;;;5.88;3.70;;;;;;;;;;10439616;28;20045;-75
2022/08/05 01:28:18;;;;;;;4.63;3.40;;;;;;;;;;10455856;28;20025;-75
2022/08/05 01:33:22;;;;;;;4.72;3.90;;;;;;;;;;10456654;28;20024;-75
2022/08/05 01:38:23;;;;;;;4.82;3.85;;;;;;;;;;10455574;28;20115;-74
2022/08/05 01:43:23;;;;;;;4.72;3.95;;;;;;;;;;10454972;28;20043;-75
2022/08/05 01:48:25;;;;;;;7.50;4.43;;;;;;;;;;10456174;28;20108;-74
2022/08/05 01:53:27;;;;;;;4.75;3.80;;;;;;;;;;10483567;28;20012;-75
2022/08/05 01:58:28;;;;;;;7.90;3.97;;;;;;;;;;10467381;28;20380;-74
2022/08/05 02:03:32;;;;;;;5.07;3.65;;;;;;;;;;10488278;28;20435;-75
2022/08/05 02:08:33;;;;;;;5.63;4.38;;;;;;;;;;10489417;28;20047;-75
2022/08/05 02:13:40;;;;;;;4.85;4.07;;;;;;;;;;10454855;28;20135;-74
2022/08/05 02:18:43;;;;;;;4.85;4.28;;;;;;;;;;10455106;28;20516;-74
2022/08/05 02:23:46;;;;;;;5.70;4.10;;;;;;;;;;10479848;28;20542;-75
2022/08/05 02:28:46;;;;;;;6.95;4.40;;;;;;;;;;10470968;28;20052;-75
2022/08/05 02:33:53;;;;;;;3.92;3.53;;;;;;;;;;10454353;28;20032;-74
2022/08/05 02:38:55;;;;;;;6.45;3.92;;;;;;;;;;10453038;28;20020;-74
2022/08/05 02:43:56;;;;;;;9.88;4.57;;;;;;;;;;10454587;28;20021;-74
2022/08/05 02:48:56;;;;;;;8.13;4.30;;;;;;;;;;10452549;28;20035;-74
2022/08/05 02:53:56;;;;;;;7.68;4.13;;;;;;;;;;10481124;28;20105;-74
2022/08/05 02:58:58;;;;;;;5.70;4.30;;;;;;;;;;10466153;28;20104;-74
2022/08/05 03:04:00;;;;;;;7.20;3.97;;;;;;;;;;10435569;28;20013;-73
2022/08/05 03:09:00;;;;;;;6.72;4.75;;;;;;;;;;10483723;28;20045;-73
2022/08/05 03:14:00;;;;;;;7.57;3.90;;;;;;;;;;10458804;28;20029;-75
2022/08/05 03:19:01;;;;;;;22.98;6.13;;;;;;;;;;10452929;28;20264;-76
2022/08/05 03:24:01;;;;;;;5.65;4.50;;;;;;;;;;10451175;28;20441;-73
2022/08/05 03:29:03;;;;;;;7.03;4.85;;;;;;;;;;10452202;28;20487;-74
2022/08/05 03:34:04;;;;;;;6.30;4.40;;;;;;;;;;10451190;28;20086;-74
2022/08/05 03:39:05;;;;;;;6.80;4.38;;;;;;;;;;10451022;28;20028;-74
2022/08/05 03:44:05;;;;;;;7.55;4.03;;;;;;;;;;10450749;28;20017;-74
2022/08/05 03:49:06;;;;;;;6.55;4.38;;;;;;;;;;10450519;28;20049;-75
2022/08/05 03:54:13;;;;;;;9.63;5.30;;;;;;;;;;10450640;28;20092;-75
2022/08/05 03:59:20;;;;;;;5.27;3.87;;;;;;;;;;10450378;28;20498;-76
2022/08/05 04:04:20;;;;;;;7.53;5.60;;;;;;;;;;10450455;28;20395;-74
2022/08/05 04:09:21;;;;;;;6.43;4.70;;;;;;;;;;10477380;28;20048;-75
2022/08/05 04:14:22;;;;;;;7.57;5.72;;;;;;;;;;10458245;28;20793;-75
2022/08/05 04:19:22;;;;;;;8.25;6.28;;;;;;;;;;10497302;28;20017;-77
2022/08/05 04:24:22;;;;;;;5.78;4.60;;;;;;;;;;10475766;28;20037;-75
2022/08/05 04:29:23;;;;;;;11.48;4.78;;;;;;;;;;10458071;28;20033;-75
2022/08/05 04:34:23;;;;;;;6.63;5.15;;;;;;;;;;10457875;28;20479;-74
2022/08/05 04:39:23;;;;;;;8.02;4.38;;;;;;;;;;10457428;28;20112;-74
2022/08/05 04:44:23;;;;;;;8.13;4.85;;;;;;;;;;10458683;28;20113;-75
2022/08/05 04:49:24;;;;;;;11.90;4.40;;;;;;;;;;10489487;28;20085;-74
2022/08/05 04:54:27;;;;;;;9.95;5.25;;;;;;;;;;10476646;28;20479;-74
2022/08/05 04:59:27;;;;;;;10.73;5.28;;;;;;;;;;10456649;28;20028;-74
2022/08/05 05:04:28;;;;;;;6.22;4.72;;;;;;;;;;10496726;28;20024;-75
2022/08/05 05:09:28;;;;;;;11.20;4.32;;;;;;;;;;10464025;28;20045;-75
2022/08/05 05:14:28;;;;;;;6.05;4.20;;;;;;;;;;10456016;28;20119;-74
2022/08/05 05:19:29;;;;;;;5.68;4.35;;;;;;;;;;10456735;28;20040;-76
2022/08/05 05:24:29;;;;;;;9.93;4.30;;;;;;;;;;10455235;28;20107;-76
2022/08/05 05:29:29;;;;;;;10.02;4.38;;;;;;;;;;10456556;28;20139;-76
2022/08/05 05:34:30;;;;;;;4.65;4.07;;;;;;;;;;10456338;28;20098;-74
2022/08/05 05:39:30;;;;;;;5.15;3.83;;;;;;;;;;10454961;28;20493;-75
2022/08/05 05:44:30;;;;;;;5.80;4.28;;;;;;;;;;10454805;28;20029;-74
2022/08/05 05:49:31;;;;;;;6.32;3.97;;;;;;;;;;10454912;28;20112;-74
2022/08/05 05:54:31;;;;;;;5.88;3.85;;;;;;;;;;10454398;28;20052;-74
2022/08/05 05:59:31;;;;;;;4.90;3.60;;;;;;;;;;10454270;28;20127;-75
2022/08/05 06:04:32;;;;;;;5.05;3.35;;;;;;;;;;10455174;28;20032;-75
2022/08/05 06:09:32;;;;;;;4.97;4.07;;;;;;;;;;10453942;28;20052;-74
2022/08/05 06:14:32;;;;;;;6.95;3.78;;;;;;;;;;10454031;28;20043;-75
2022/08/05 06:19:32;;;;;;;5.47;3.25;;;;;;;;;;10482302;28;20078;-74
2022/08/05 06:24:34;;;;;;;5.45;3.40;;;;;;;;;;10489739;28;20040;-73
2022/08/05 06:29:35;;;;;;;6.15;3.50;;;;;;;;;;10452513;28;20056;-74
2022/08/05 06:34:35;;;;;;;9.30;3.95;;;;;;;;;;10477256;28;20036;-75
2022/08/05 06:39:38;;;;;;;7.28;3.65;;;;;;;;;;10469151;28;20039;-75
2022/08/05 06:44:38;;;;;;;7.03;3.28;;;;;;;;;;10436213;28;20020;-74
2022/08/05 06:49:38;;;;;;;5.65;3.30;;;;;;;;;;10477794;28;20137;-74
2022/08/05 06:54:38;;;;;;;10.90;3.78;;;;;;;;;;10464629;28;20456;-74
2022/08/05 06:59:39;;;;;;;11.02;4.47;;;;;;;;;;10452853;28;20402;-74
2022/08/05 07:04:39;;;;;;;6.40;3.30;;;;;;;;;;10453613;28;20053;-74
2022/08/05 07:09:39;;;;;;;8.95;3.30;;;;;;;;;;10451446;28;20063;-74
2022/08/05 07:19:59;;;;;;;11.88;3.90;;;;;;;;;;10452739;28;20407;-75
2022/08/05 07:25:00;;;;;;;6.32;3.05;;;;;;;;;;10452532;28;20039;-75
2022/08/05 07:30:01;;;;;;;12.38;3.70;;;;;;;;;;10451121;28;20025;-75
2022/08/05 07:35:01;;;;;;;9.30;3.05;;;;;;;;;;10486508;28;20020;-74
2022/08/05 07:40:02;;;;;;;8.33;3.13;;;;;;;;;;10478779;28;20025;-74
2022/08/05 07:45:02;;;;;;;9.45;3.22;;;;;;;;;;10450751;28;20275;-75
2022/08/05 07:50:02;;;;;;;7.03;3.13;;;;;;;;;;10433667;28;20226;-74
2022/08/05 07:55:03;;;;;;;6.90;2.90;;;;;;;;;;10450307;28;20017;-74
2022/08/05 08:00:04;;;;;;;10.73;3.73;;;;;;;;;;10450569;28;20501;-75
2022/08/05 08:05:04;;;;;;;9.27;2.97;;;;;;;;;;10458786;28;20281;-75
2022/08/05 08:10:05;;;;;;;7.65;2.88;;;;;;;;;;10473205;28;20132;-75
2022/08/05 08:15:08;;;;;;;5.45;2.60;;;;;;;;;;10449966;28;20069;-74
2022/08/05 08:20:08;;;;;;;3.95;2.33;;;;;;;;;;10449923;28;20104;-74
2022/08/05 08:25:09;;;;;;;8.63;2.50;;;;;;;;;;10449820;28;20115;-74
2022/08/05 08:30:10;;;;;;;4.85;2.72;;;;;;;;;;10488598;28;20259;-74
2022/08/05 08:35:11;;;;;;;5.20;2.35;;;;;;;;;;10474613;28;20021;-74
2022/08/05 08:40:11;;;;;;;6.53;2.85;;;;;;;;;;10449457;28;20032;-74
2022/08/05 08:45:11;;;;;;;5.13;2.43;;;;;;;;;;10483469;28;20043;-74
2022/08/05 08:50:13;;;;;;;6.23;2.40;;;;;;;;;;10480331;28;20107;-74
2022/08/05 08:55:14;;;;;;;5.65;2.10;;;;;;;;;;10453118;28;20020;-74
2022/08/05 09:00:15;;;;;;;8.10;2.47;;;;;;;;;;10486090;28;20028;-74
2022/08/05 09:05:15;;;;;;;4.32;1.50;;;;;;;;;;10496037;28;20025;-74
2022/08/05 09:10:16;;;;;;;3.23;1.90;;;;;;;;;;10457639;28;20429;-74
2022/08/05 09:15:16;;;;;;;8.63;1.55;;;;;;;;;;10456391;28;20525;-74
2022/08/05 09:20:16;;;;;;;2.20;1.30;;;;;;;;;;10495496;28;20410;-74
2022/08/05 09:25:18;;;;;;;4.13;1.10;;;;;;;;;;10470338;28;20108;-73
2022/08/05 09:30:19;;;;;;;1.92;1.10;;;;;;;;;;10455342;28;20021;-74
2022/08/05 09:35:19;;;;;;;2.10;1.38;;;;;;;;;;10457031;28;20052;-75
2022/08/05 09:40:33;;;;;;;4.57;1.52;;;;;;;;;;10455832;28;20435;-74
2022/08/05 09:45:43;;;;;;;2.20;1.57;;;;;;;;;;10454989;28;20017;-74
2022/08/05 09:50:47;;;;;;;3.72;1.20;;;;;;;;;;10454497;28;20020;-73
2022/08/05 09:55:51;;;;;;;7.10;1.15;;;;;;;;;;10437942;28;20020;-73
2022/08/05 10:00:54;;;;;;;5.88;1.77;;;;;;;;;;10455474;28;20048;-74
2022/08/05 10:06:02;;;;;;;3.97;1.25;;;;;;;;;;10453966;28;20048;-74
2022/08/05 10:11:13;;;;;;;5.03;1.40;;;;;;;;;;10476473;28;20518;-74
2022/08/05 10:16:33;;;;;;;2.88;1.73;;;;;;;;;;10453610;28;20033;-73
2022/08/05 10:21:33;;;;;;;6.32;1.38;;;;;;;;;;10454847;28;20021;-75
2022/08/05 10:26:34;;;;;;;5.32;1.55;;;;;;;;;;10453192;28;20419;-73
2022/08/05 10:31:35;;;;;;;2.10;1.40;;;;;;;;;;10443783;28;20119;-73
2022/08/05 10:36:36;;;;;;;7.82;1.48;;;;;;;;;;10452574;28;20025;-74
2022/08/05 10:41:41;;;;;;;2.42;1.58;;;;;;;;;;10435993;28;20162;-75
2022/08/05 10:46:49;;;;;;;3.25;1.50;;;;;;;;;;10474960;28;20028;-74
2022/08/05 10:51:56;;;;;;;1.33;1.23;;;;;;;;;;10469816;28;20012;-74
2022/08/05 10:56:57;;;;;;;3.25;1.45;;;;;;;;;;10468299;28;20441;-74
2022/08/05 11:02:08;;;;;;;2.80;1.67;;;;;;;;;;10453094;28;20075;-74
2022/08/05 11:07:10;;;;;;;1.98;1.60;;;;;;;;;;10455388;28;20087;-74
2022/08/05 11:12:40;;;;;;;2.25;1.50;;;;;;;;;;10482907;28;20506;-74
2022/08/05 11:17:43;;;;;;;7.28;2.10;;;;;;;;;;10449489;28;20037;-74
2022/08/05 11:22:48;;;;;;;3.40;1.83;;;;;;;;;;10452476;28;20021;-74
2022/08/05 11:27:48;;;;;;;2.65;2.17;;;;;;;;;;10468496;28;20100;-74
2022/08/05 11:32:48;;;;;;;2.83;2.17;;;;;;;;;;10469388;28;20103;-74
2022/08/05 11:37:51;;;;;;;4.75;2.35;;;;;;;;;;10468752;28;20149;-74
2022/08/05 11:42:52;;;;;;;4.40;2.70;;;;;;;;;;10467703;28;20420;-73
2022/08/05 11:47:52;;;;;;;5.20;2.47;;;;;;;;;;10474504;28;20210;-72
2022/08/05 11:52:53;;;;;;;5.85;2.92;;;;;;;;;;10433753;28;20020;-74
2022/08/05 11:57:53;;;;;;;6.30;3.10;;;;;;;;;;10450447;28;20020;-74
2022/08/05 12:02:53;;;;;;;6.32;2.90;;;;;;;;;;10468140;28;20053;-74
2022/08/05 12:07:57;;;;;;;5.85;2.95;;;;;;;;;;10468261;28;20045;-75
2022/08/05 12:13:02;;;;;;;5.57;2.50;;;;;;;;;;10470313;28;20028;-74
2022/08/05 12:18:03;;;;;;;4.50;3.10;;;;;;;;;;10463213;28;20104;-73
2022/08/05 12:23:07;;;;;;;9.25;2.50;;;;;;;;;;10468135;28;20112;-75
2022/08/05 12:28:07;;;;;;;9.40;2.88;;;;;;;;;;10451780;28;20418;-73
2022/08/05 12:33:07;;;;;;;6.72;3.00;;;;;;;;;;10457179;28;20021;-74
2022/08/05 12:38:08;;;;;;;3.43;2.97;;;;;;;;;;10475013;28;20009;-74
2022/08/05 12:43:08;;;;;;;4.25;2.97;;;;;;;;;;10458164;28;20036;-73
2022/08/05 12:48:15;;;;;;;3.88;2.92;;;;;;;;;;10458324;28;20032;-74
2022/08/05 12:53:16;;;;;;;8.00;3.00;;;;;;;;;;10492078;28;20031;-75
2022/08/05 12:58:22;;;;;;;4.05;2.90;;;;;;;;;;10482896;28;20402;-75
2022/08/05 13:03:23;;;;;;;3.72;2.78;;;;;;;;;;10459141;28;20036;-74
2022/08/05 13:08:26;;;;;;;4.00;3.20;;;;;;;;;;10456086;28;20400;-74
2022/08/05 13:13:28;;;;;;;5.80;3.40;;;;;;;;;;10474615;28;20319;-74
2022/08/05 13:18:37;;;;;;;7.63;3.10;;;;;;;;;;10473550;28;20056;-74
2022/08/05 13:23:38;;;;;;;4.80;2.67;;;;;;;;;;10476594;28;20037;-74
2022/08/05 13:28:38;;;;;;;4.82;3.15;;;;;;;;;;10472809;28;20025;-75
2022/08/05 13:33:41;;;;;;;4.95;3.08;;;;;;;;;;10472633;28;20020;-75
2022/08/05 13:38:41;;;;;;;4.45;2.70;;;;;;;;;;10454967;28;20021;-73
2022/08/05 13:43:43;;;;;;;5.90;2.85;;;;;;;;;;10454645;28;20501;-74
2022/08/05 13:48:43;;;;;;;6.03;2.75;;;;;;;;;;10472995;28;20016;-75
2022/08/05 13:53:44;;;;;;;3.57;3.10;;;;;;;;;;10454303;28;20017;-74
2022/08/05 13:58:44;;;;;;;9.90;3.17;;;;;;;;;;10454443;28;20021;-73
2022/08/05 14:05:08;;;;;;;3.95;2.88;;;;;;;;;;10475277;28;20028;-74
2022/08/05 14:09:04;;;;;;;6.32;3.25;;;;;;;;;;10454954;28;20483;-75
2022/08/05 14:14:05;;;;;;;6.00;2.67;;;;;;;;;;10454741;28;20131;-75
2022/08/05 14:19:05;;;;;;;4.60;2.83;;;;;;;;;;10454272;28;20071;-75
2022/08/05 14:24:09;;;;;;;4.83;2.90;;;;;;;;;;10474033;28;20545;-75
2022/08/05 14:29:10;;;;;;;6.40;2.00;;;;;;;;;;10453716;28;20020;-74
2022/08/05 14:34:10;;;;;;;3.80;2.50;;;;;;;;;;10473925;28;20093;-75
2022/08/05 14:39:10;;;;;;;5.65;2.47;;;;;;;;;;10454118;28;20025;-76
2022/08/05 14:44:11;;;;;;;5.73;2.40;;;;;;;;;;10470371;28;20506;-76
2022/08/05 14:49:11;;;;;;;4.63;2.97;;;;;;;;;;10451977;28;20029;-76
2022/08/05 14:54:11;;;;;;;4.53;2.38;;;;;;;;;;10465444;28;20478;-74
2022/08/05 14:59:11;;;;;;;4.57;2.33;;;;;;;;;;10454977;28;20430;-75
2022/08/05 15:04:12;;;;;;;2.17;1.90;;;;;;;;;;10451348;28;20048;-74
2022/08/05 15:09:12;;;;;;;2.60;2.35;;;;;;;;;;10469239;28;20049;-75
2022/08/05 15:14:13;;;;;;;2.95;2.30;;;;;;;;;;10452500;28;20104;-75
2022/08/05 15:19:13;;;;;;;8.93;4.60;;;;;;;;;;10443292;28;20100;-75
2022/08/05 15:24:14;;;;;;;7.90;3.08;;;;;;;;;;10468206;28;20107;-74
2022/08/05 15:29:14;;;;;;;4.53;2.30;;;;;;;;;;10472203;28;20021;-76
2022/08/05 15:34:14;;;;;;;9.73;2.17;;;;;;;;;;10468594;28;20490;-73
2022/08/05 15:39:14;;;;;;;4.93;2.88;;;;;;;;;;10468392;28;20028;-73
2022/08/05 15:44:15;;;;;;;6.25;3.22;;;;;;;;;;10450227;28;20021;-74
2022/08/05 15:49:15;;;;;;;4.72;3.17;;;;;;;;;;10473996;28;20055;-74
2022/08/05 15:54:15;;;;;;;5.07;2.90;;;;;;;;;;10469152;28;20036;-75
2022/08/05 15:59:15;;;;;;;2.90;2.40;;;;;;;;;;10468088;28;20589;-74
2022/08/05 16:04:16;;;;;;;3.30;2.80;;;;;;;;;;10449032;28;20847;-74
2022/08/05 16:09:16;;;;;;;6.18;2.53;;;;;;;;;;10458224;28;20423;-75
2022/08/05 16:14:16;;;;;;;6.22;2.60;;;;;;;;;;10442167;28;20477;-74
2022/08/05 16:19:17;;;;;;;3.25;2.65;;;;;;;;;;10441350;28;20478;-75
2022/08/05 16:24:17;;;;;;;3.93;2.33;;;;;;;;;;10457928;28;20020;-74
2022/08/05 16:29:17;;;;;;;3.90;2.63;;;;;;;;;;10475646;28;20112;-73
2022/08/05 16:34:18;;;;;;;2.53;2.33;;;;;;;;;;10472921;28;20020;-75
2022/08/05 16:39:18;;;;;;;4.05;2.25;;;;;;;;;;10458604;28;20024;-74
2022/08/05 16:44:19;;;;;;;4.53;3.08;;;;;;;;;;10458224;28;20082;-75
2022/08/05 16:49:21;;;;;;;3.90;2.57;;;;;;;;;;10478051;28;20043;-74
2022/08/05 16:54:21;;;;;;;4.88;2.80;;;;;;;;;;10456746;28;20025;-74
2022/08/05 16:59:21;;;;;;;9.55;3.33;;;;;;;;;;10487090;28;20483;-74
2022/08/05 17:04:22;;;;;;;13.25;3.20;;;;;;;;;;10479910;28;20021;-74
2022/08/05 17:09:23;;;;;;;7.10;3.15;;;;;;;;;;10473302;28;20053;-75
2022/08/05 17:14:23;;;;;;;5.32;3.25;;;;;;;;;;10454845;28;20091;-74
2022/08/05 17:19:23;;;;;;;6.22;2.90;;;;;;;;;;10474640;28;20119;-75
2022/08/05 17:24:23;;;;;;;12.57;3.50;;;;;;;;;;10477194;28;20029;-73
2022/08/05 17:29:24;;;;;;;4.60;3.37;;;;;;;;;;10438655;28;20009;-74
2022/08/05 17:34:24;;;;;;;9.43;3.67;;;;;;;;;;10475695;28;20475;-74
2022/08/05 17:39:25;;;;;;;5.38;3.50;;;;;;;;;;10456570;28;20017;-76
2022/08/05 17:44:25;;;;;;;7.53;4.05;;;;;;;;;;10456064;28;20052;-73
2022/08/05 17:49:26;;;;;;;7.15;4.55;;;;;;;;;;10455791;28;20024;-74
2022/08/05 17:54:26;;;;;;;9.87;3.57;;;;;;;;;;10453131;28;20107;-70
2022/08/05 17:59:26;;;;;;;12.93;3.73;;;;;;;;;;10475226;28;20112;-74
2022/08/05 18:04:27;;;;;;;5.57;3.37;;;;;;;;;;10471365;28;20378;-75
2022/08/05 18:09:27;;;;;;;7.97;3.95;;;;;;;;;;10473450;28;20071;-74
2022/08/05 18:14:27;;;;;;;8.63;3.70;;;;;;;;;;10453621;28;20487;-75
2022/08/05 18:19:28;;;;;;;10.57;3.88;;;;;;;;;;10471839;28;20463;-73
2022/08/05 18:24:29;;;;;;;12.85;4.43;;;;;;;;;;10464431;28;20016;-72
2022/08/05 18:29:29;;;;;;;11.23;5.30;;;;;;;;;;10475811;28;20016;-73
2022/08/05 18:34:29;;;;;;;15.57;6.67;;;;;;;;;;10473582;28;20487;-74
2022/08/05 18:39:29;;;;;;;7.57;4.90;;;;;;;;;;10470831;28;20025;-74
2022/08/05 18:44:31;;;;;;;12.50;5.75;;;;;;;;;;10453920;28;20020;-74
2022/08/05 18:54:50;;;;;;;9.55;4.93;;;;;;;;;;10453255;28;20017;-74
2022/08/05 18:59:50;;;;;;;16.00;4.60;;;;;;;;;;10469536;28;20115;-74
2022/08/05 19:04:51;;;;;;;7.50;4.30;;;;;;;;;;10477678;28;20107;-74
2022/08/05 19:09:51;;;;;;;14.10;5.40;;;;;;;;;;10468367;28;20072;-75
2022/08/05 19:14:52;;;;;;;15.48;5.50;;;;;;;;;;10452595;28;20039;-74
2022/08/05 19:19:52;;;;;;;10.93;5.25;;;;;;;;;;10472625;28;20021;-74
2022/08/05 19:24:52;;;;;;;7.20;5.22;;;;;;;;;;10469319;28;20025;-73
2022/08/05 19:29:54;;;;;;;12.23;6.80;;;;;;;;;;10450716;28;20021;-73
2022/08/05 19:34:55;;;;;;;11.40;6.60;;;;;;;;;;10473410;28;20052;-75
2022/08/05 19:39:56;;;;;;;15.80;6.82;;;;;;;;;;10477313;28;20508;-76
2022/08/05 19:44:57;;;;;;;15.23;6.80;;;;;;;;;;10441727;28;20016;-73
2022/08/05 19:49:59;;;;;;;15.70;6.68;;;;;;;;;;10462586;28;20040;-74
2022/08/05 19:55:00;;;;;;;14.02;5.75;;;;;;;;;;10467923;28;20025;-75
2022/08/05 20:00:00;;;;;;;15.70;5.70;;;;;;;;;;10467697;28;20609;-75
2022/08/05 20:05:01;;;;;;;7.60;5.00;;;;;;;;;;10469201;28;20024;-75
2022/08/05 20:10:02;;;;;;;6.47;4.55;;;;;;;;;;10450002;28;20041;-75
2022/08/05 20:15:04;;;;;;;6.63;4.20;;;;;;;;;;10449928;28;20102;-74
2022/08/05 20:20:07;;;;;;;8.40;4.40;;;;;;;;;;10467768;28;20017;-74
2022/08/05 20:25:08;;;;;;;12.38;4.75;;;;;;;;;;10474074;28;20067;-75
2022/08/05 20:30:09;;;;;;;6.87;3.87;;;;;;;;;;10451044;28;20380;-75
2022/08/05 20:35:09;;;;;;;8.23;5.25;;;;;;;;;;10449469;28;20029;-74
2022/08/05 20:40:09;;;;;;;7.07;4.70;;;;;;;;;;10461990;28;20017;-74
2022/08/05 20:45:10;;;;;;;6.20;4.75;;;;;;;;;;10450418;28;20566;-74
2022/08/05 20:50:11;;;;;;;8.40;4.63;;;;;;;;;;10456516;28;20047;-74
2022/08/05 20:55:11;;;;;;;10.95;4.55;;;;;;;;;;10471807;28;20017;-74
2022/08/05 21:00:13;;;;;;;6.55;4.30;;;;;;;;;;10482739;28;20020;-74
2022/08/05 21:05:13;;;;;;;5.32;4.10;;;;;;;;;;10457291;28;20021;-75
2022/08/05 21:10:14;;;;;;;10.18;4.35;;;;;;;;;;10479733;28;20037;-74
2022/08/05 21:15:14;;;;;;;6.15;4.00;;;;;;;;;;10477431;28;20040;-74
2022/08/05 21:20:15;;;;;;;7.57;4.50;;;;;;;;;;10456066;28;20071;-74
2022/08/05 21:25:15;;;;;;;4.78;3.95;;;;;;;;;;10476548;28;20107;-75
2022/08/05 21:30:15;;;;;;;5.47;4.00;;;;;;;;;;10477501;28;20016;-74
2022/08/05 21:35:16;;;;;;;13.20;4.32;;;;;;;;;;10471106;28;20032;-75
2022/08/05 21:40:16;;;;;;;6.07;4.67;;;;;;;;;;10473172;28;20048;-74
2022/08/05 21:45:16;;;;;;;7.70;3.80;;;;;;;;;;10473962;28;20410;-75
2022/08/05 21:50:17;;;;;;;6.18;4.18;;;;;;;;;;10454987;28;20025;-74
2022/08/05 21:55:18;;;;;;;8.10;4.22;;;;;;;;;;10455861;28;20036;-73
2022/08/05 22:00:18;;;;;;;5.00;4.50;;;;;;;;;;10454147;28;20016;-74
2022/08/05 22:05:18;;;;;;;4.82;4.07;;;;;;;;;;10472974;28;20132;-73
2022/08/05 22:10:19;;;;;;;10.13;3.80;;;;;;;;;;10455129;28;20072;-73
2022/08/05 22:15:19;;;;;;;7.70;3.95;;;;;;;;;;10473525;28;20032;-75
2022/08/05 22:20:20;;;;;;;7.43;4.35;;;;;;;;;;10474786;28;20009;-74
2022/08/05 22:30:40;;;;;;;9.45;4.38;;;;;;;;;;10455209;28;20025;-74
2022/08/05 22:35:40;;;;;;;4.38;3.70;;;;;;;;;;10461348;28;20016;-75
2022/08/05 22:40:41;;;;;;;4.80;4.20;;;;;;;;;;10479914;28;20020;-74
2022/08/05 22:45:41;;;;;;;8.27;4.15;;;;;;;;;;10454063;28;20102;-74
2022/08/05 22:50:41;;;;;;;6.32;5.18;;;;;;;;;;10469148;28;20463;-75
2022/08/05 22:55:41;;;;;;;7.77;4.37;;;;;;;;;;10477301;28;20039;-74
2022/08/05 23:00:42;;;;;;;5.63;4.47;;;;;;;;;;10471827;28;20471;-74
2022/08/05 23:05:42;;;;;;;6.28;4.38;;;;;;;;;;10472877;28;20479;-74
2022/08/05 23:10:42;;;;;;;7.63;4.45;;;;;;;;;;10452988;28;20051;-75
2022/08/05 23:15:43;;;;;;;6.03;4.75;;;;;;;;;;10465785;28;20149;-74
2022/08/05 23:20:43;;;;;;;4.50;3.67;;;;;;;;;;10468687;28;20047;-74
2022/08/05 23:25:43;;;;;;;8.10;4.00;;;;;;;;;;10469595;28;20085;-74
2022/08/05 23:30:44;;;;;;;8.30;3.50;;;;;;;;;;10452457;28;20096;-74
2022/08/05 23:35:44;;;;;;;6.03;4.10;;;;;;;;;;10451987;28;20415;-74
2022/08/05 23:40:45;;;;;;;3.65;3.33;;;;;;;;;;10467942;28;20017;-74
2022/08/05 23:45:45;;;;;;;5.82;4.38;;;;;;;;;;10468715;28;20375;-74
2022/08/05 23:50:45;;;;;;;7.95;4.50;;;;;;;;;;10472559;28;20021;-75
2022/08/05 23:55:46;;;;;;;5.68;4.68;;;;;;;;;;10467890;28;20021;-74
